الصفحة الرئيسية
METAR-TAF:

METAR-TAF

مطار :

مطار أكادير المسيرة الدولي

أغادير, المغرب

دائرة عرض: 30-20N, خط طول: 009-24W, ارتفاع: 74 متر

مراقبة الطقس الحالي

تاريخ ووقت الإصدار 38 دقيقة قبل الساعة 03:00UTC
ريح 4 عقدة من الجنوب/الجنوب الغربي
درجة الحرارة 20°درجة مئوية
الرطوبة 88%
ضغط 1014 hPa
الرؤية: 8000 متر
ملبد بالغيوم على ارتفاع 1000 قدم

METAR: GMAD 270300Z 20004KT 8000 OVC010 20/18 Q1014 NOSIG

زمن: 04:38 (03:38 UTC)

توقعات

تاريخ ووقت الإصدار 4ساعات و 38 دقيقة قبل الساعة 23:00UTC
التوقعات صالحة من27 الساعة 00 UTC إلى 28 الساعة 06 UTC
ريح 8 عقدة من الشرق/الشمال الشرقي
الرؤية 10 كم أو أكثر
الغيوم لا تقل 1500 م ولا وجود لمزنة ركامية السحاب الأسود

TAF: GMAD 262300Z 2700/2806 06008KT CAVOK

أرصاد الطقس والتوقعات من أكثر من 4000 مطار (تقارير الطقس للمطار METAR والتنبؤ بالطقس بالمطارTAF).

المحطات المتاحة هي النقط الصفراء والحمراء على الخريطة.

حرك المؤشر فوق النقطة لمعرفة اسم المحطة.

ثم انقر لمعرفة أرصاد وتوقعات الطقس.

لتغيير الخارطة: اضغط على الأزرار الخضراء مع رمز الصليب الأسود للتكبير. على الزر الأخضر مع شرطة للتصغير، أو على الأسهم الخضراء للخرائط المجاورة.


METAR-TAF: